echo '';

Nearby METAR Reports

 

ENRY - Rygge (nor-Afb), Norway
Distance from station: NV 23km
Oppdatert: 20/11/2018 14:20
Hovedsaklig skyet
Hovedsaklig skyet
 Vind fra N
Vind: N 15 km/h
Temperatur: -1°C
Vindkjøling: -6°C
Duggpunkt: -4°C
Fuktighet: 80%
Barometer: 1033 hPa
Clouds: Hovedsaklig skyet
Visibility: 10 km
Cloud details: Hovedsaklig skyet 335 m
2018/11/20 13:20 ENRY 201320Z 36008KT 9999 BKN011 M01/M04 Q1033 NOSIG
ENTO - Torp (civ/Nor-Af, Norway
Distance from station: V 47km
Oppdatert: 20/11/2018 14:20
Overskyet
Overskyet
 Vind fra N
Vind: N 19 km/h
Temperatur: -1°C
Vindkjøling: -7°C
Duggpunkt: -3°C
Fuktighet: 86%
Barometer: 1032 hPa
Clouds: Overskyet
Visibility: 10 km
Cloud details: Delvis skyet 366 m
Overskyet 549 m
2018/11/20 13:20 ENTO 201320Z 36010KT 9999 SCT012 OVC018 M01/M03 Q1032
 
ENSN - Skien/Geiterygge, Norway
Distance from station: V 87km
Oppdatert: 09/11/2015 09:50
NOT Current
Klart
Klart
 Vind fra SSV
Vind: SSV 19 km/h, Vindkast: 41 km/h
Temperatur: 7°C
Vindkjøling: 4°C
Duggpunkt: 3°C
Fuktighet: 76%
Barometer: 1000 hPa
Oversikt: Klart
Visibility: greater than 10 km
2015/11/09 08:50 ENSN 090850Z 20010G22KT 150V240 CAVOK 07/03 Q1000
ENGM - Oslo/Gardermoen, Norway
Distance from station: 0 107km
Oppdatert: 20/11/2018 14:20
Hovedsaklig skyet
Hovedsaklig skyet
 Vind fra NNØ
Vind: NNØ 11 km/h
Temperatur: -2°C
Vindkjøling: -6°C
Duggpunkt: -4°C
Fuktighet: 86%
Barometer: 1032 hPa
Clouds: Hovedsaklig skyet
Visibility: 10 km
Cloud details: Hovedsaklig skyet 335 m
2018/11/20 13:20 ENGM 201320Z 03006KT 9999 BKN011 M02/M04 Q1032 NOSIG
 
ENNO - Notodden, Norway
Distance from station: VNV 112km
Oppdatert: 20/11/2018 13:50
Klart
Klart
 Vind fra VSV
Vind: VSV 7 km/h
Temperatur: -1°C
Vindkjøling: -4°C
Duggpunkt: -4°C
Fuktighet: 80%
Barometer: 1033 hPa
Oversikt: Klart
Visibility: greater than 10 km
2018/11/20 12:50 ENNO 201250Z 25004KT CAVOK M01/M04 Q1033
ESGT - Trollhattan (pvt, Sweden
Distance from station: SØ 125km
Oppdatert: 20/11/2018 14:20
Hovedsaklig skyet
Hovedsaklig skyet
 Vind fra NØ
Vind: NØ 15 km/h
Temperatur: 2°C
Vindkjøling: -2°C
Duggpunkt: -1°C
Fuktighet: 81%
Barometer: 1031 hPa
Clouds: Hovedsaklig skyet
Visibility: 10 km
Cloud details: Hovedsaklig skyet 488 m
2018/11/20 13:20 ESGT 201320Z 05008KT 9999 BKN016 02/M01 Q1031
 
ESIB - Satenas (swe-Afb, Sweden
Distance from station: SØ 129km
Oppdatert: 20/11/2018 14:20
Hovedsaklig skyet
Hovedsaklig skyet
 Vind fra ØNØ
Vind: ØNØ 13 km/h
Temperatur: 2°C
Vindkjøling: -1°C
Duggpunkt: 0°C
Fuktighet: 87%
Barometer: 1031 hPa
Clouds: Hovedsaklig skyet
Visibility: 10 km
Cloud details: Hovedsaklig skyet 427 m
2018/11/20 13:20 ESIB 201320Z 06007KT 9999 BKN014 02/00 Q1031
ESOK - Karlstad North, Sweden
Distance from station: ØNØ 129km
Oppdatert: 20/11/2018 14:20
Hovedsaklig skyet
Hovedsaklig skyet
 Vind fra N
Vind: N 9 km/h
Temperatur: -1°C
Vindkjøling: -4°C
Duggpunkt: -3°C
Fuktighet: 86%
Barometer: 1032 hPa
Clouds: Hovedsaklig skyet
Visibility: 10 km
Cloud details: Hovedsaklig skyet 305 m
2018/11/20 13:20 ESOK 201320Z 36005KT 9999 BKN010 M01/M03 Q1032
 
ESGP - Goteborg/Save (a, Sweden
Distance from station: SSØ 169km
Oppdatert: 02/01/2017 11:20
NOT Current
Klart
Klart
 Vind fra calm
Vind: Stille
Temperatur: -2°C
Duggpunkt: -4°C
Fuktighet: 86%
Barometer: 1012 hPa
Clouds: Klart
Visibility: 10 km
2017/01/02 10:20 ESGP 021020Z AUTO 00000KT 9999 NCD M02/M04 Q1012
ESGG - Goteborg/Landvet, Sweden
Distance from station: SSØ 188km
Oppdatert: 20/11/2018 14:20
Delvis skyet
Delvis skyet
 Vind fra Ø
Vind: Ø 13 km/h
Temperatur: 3°C
Vindkjøling: -1°C
Duggpunkt: -1°C
Fuktighet: 75%
Barometer: 1029 hPa
Clouds: Delvis skyet
Visibility: 10 km
Cloud details: Delvis skyet 579 m
2018/11/20 13:20 ESGG 201320Z 08007KT 050V110 9999 SCT019 03/M01 Q1029 R03/19//95
 
EKSN - Sindal Airport, Denmark
Distance from station: SSV 199km
Oppdatert: 20/11/2018 13:50
Hovedsaklig skyet
Hovedsaklig skyet
 Vind fra Ø
Vind: Ø 19 km/h
Temperatur: 4°C
Vindkjøling: 0°C
Duggpunkt: 1°C
Fuktighet: 81%
Barometer: 1028 hPa
Clouds: Hovedsaklig skyet
Visibility: 10 km
Cloud details: Hovedsaklig skyet 549 m
2018/11/20 12:50 EKSN 201250Z 09010KT 9999 BKN018 04/01 Q1028
ENCN - Kristiansand/Kje, Norway
Distance from station: VSV 209km
Oppdatert: 20/11/2018 14:20
Nearby showers, Hovedsaklig skyet
Nearby showers, Hovedsaklig skyet
 Vind fra NØ
Vind: NØ 24 km/h
Temperatur: 2°C
Vindkjøling: -3°C
Duggpunkt: -1°C
Fuktighet: 81%
Barometer: 1030 hPa
Oversikt: Nearby Showers
Clouds: Hovedsaklig skyet
Visibility: 10 km
Cloud details: Hovedsaklig skyet 579 m
2018/11/20 13:20 ENCN 201320Z 04013KT 9999 VCSH BKN019 02/M01 Q1030
 
ENFG - Fagernes/Leirin, Norway
Distance from station: NNV 220km
Oppdatert: 22/04/2018 10:50
NOT Current
Klart
Klart
 Vind fra S
Vind: S 13 km/h
Temperatur: 6°C
Vindkjøling: 3°C
Duggpunkt: -3°C
Fuktighet: 53%
Barometer: 1014 hPa
Oversikt: Klart
Visibility: greater than 10 km
2018/04/22 08:50 ENFG 220850Z 19007KT CAVOK 06/M03 Q1014
ESOE - Orebro (private), Sweden
Distance from station: Ø 225km
Oppdatert: 20/11/2018 14:20
Hovedsaklig skyet
Hovedsaklig skyet
 Vind fra calm
Vind: Stille
Temperatur: 1°C
Duggpunkt: -1°C
Fuktighet: 87%
Barometer: 1032 hPa
Clouds: Hovedsaklig skyet
Visibility: 10 km
Cloud details: Hovedsaklig skyet 457 m
2018/11/20 13:20 ESOE 201320Z 00000KT 9999 BKN015 01/M01 Q1032
 
ESGJ - Jonkoping Airpor, Sweden
Distance from station: SØ 238km
Oppdatert: 20/11/2018 14:20
Hovedsaklig skyet
Hovedsaklig skyet
 Vind fra ØNØ
Vind: ØNØ 13 km/h
Temperatur: 2°C
Vindkjøling: -1°C
Duggpunkt: 0°C
Fuktighet: 87%
Barometer: 1029 hPa
Clouds: Hovedsaklig skyet
Visibility: 10 km
Cloud details: Hovedsaklig skyet 427 m
2018/11/20 13:20 ESGJ 201320Z 07007KT 9999 BKN014 02/M00 Q1029 REDZ
EKYT - Alborg, Denmark
Distance from station: SSV 248km
Oppdatert: 20/11/2018 14:20
Hovedsaklig skyet
Hovedsaklig skyet
 Vind fra ØNØ
Vind: ØNØ 22 km/h
Temperatur: 6°C
Vindkjøling: 2°C
Duggpunkt: 2°C
Fuktighet: 76%
Barometer: 1027 hPa
Clouds: Hovedsaklig skyet
Visibility: 16 miles
Cloud details: Few Clouds 610 m
Hovedsaklig skyet 732 m
2018/11/20 13:20 EKYT 201320Z AUTO 07012KT 9999NDV FEW020/// BKN024/// 06/02 Q1027
 
ESCF - Linkoping/Malmen, Sweden
Distance from station: ØSØ 272km
Oppdatert: 20/11/2018 14:20
Hovedsaklig skyet
Hovedsaklig skyet
 Vind fra N
Vind: N 9 km/h
Temperatur: 1°C
Vindkjøling: -2°C
Duggpunkt: 0°C
Fuktighet: 93%
Barometer: 1031 hPa
Clouds: Hovedsaklig skyet
Visibility: 10 km
Cloud details: Hovedsaklig skyet 213 m
Hovedsaklig skyet 610 m
2018/11/20 13:20 ESCF 201320Z 01005KT 9999 BKN007 BKN020 01/00 Q1031
ESSD - Borlange (swe-Af, Sweden
Distance from station: ØNØ 279km
Oppdatert: 20/11/2018 14:20
Klart
Klart
 Vind fra NV
Vind: NV 11 km/h
Temperatur: -2°C
Vindkjøling: -6°C
Duggpunkt: -3°C
Fuktighet: 93%
Barometer: 1032 hPa
Oversikt: Klart
Visibility: greater than 10 km
2018/11/20 13:20 ESSD 201320Z 31006KT CAVOK M02/M03 Q1032
 
ESSL - Linkoping/Saab, Sweden
Distance from station: ØSØ 280km
Oppdatert: 20/11/2018 14:20
Hovedsaklig skyet
Hovedsaklig skyet
 Vind fra NØ
Vind: NØ 9 km/h
Temperatur: 2°C
Vindkjøling: -1°C
Duggpunkt: 1°C
Fuktighet: 93%
Barometer: 1031 hPa
Clouds: Hovedsaklig skyet
Visibility: 10 km
Cloud details: Hovedsaklig skyet 183 m
2018/11/20 13:20 ESSL 201320Z 05005KT 030V100 9999 BKN006 02/01 Q1031
ESMT - Halmstad (swe-Af, Sweden
Distance from station: SSØ 303km
Oppdatert: 20/11/2018 14:20
Hovedsaklig skyet
Hovedsaklig skyet
 Vind fra ØNØ
Vind: ØNØ 22 km/h
Temperatur: 5°C
Vindkjøling: 1°C
Duggpunkt: 0°C
Fuktighet: 70%
Barometer: 1027 hPa
Clouds: Hovedsaklig skyet
Visibility: 10 km
Cloud details: Hovedsaklig skyet 1219 m
2018/11/20 13:20 ESMT 201320Z 07012KT 040V100 9999 BKN040 05/M00 Q1027